createdAt,value
2023-01-18T00:02:00.006Z,95633.22
2023-01-18T00:05:06.729Z,95628.81
2023-01-18T00:08:19.024Z,95616.69
2023-01-18T00:11:25.298Z,95620.66
2023-01-18T00:14:30.860Z,95618.81
2023-01-18T00:17:47.792Z,95607.16
2023-01-18T00:20:53.255Z,95611.34
2023-01-18T00:24:02.300Z,95610.22
2023-01-18T00:27:08.095Z,95617.84
2023-01-18T00:30:17.550Z,95612.00
2023-01-18T00:33:22.973Z,95606.59
2023-01-18T00:36:29.520Z,95598.78
2023-01-18T00:39:37.770Z,95605.06
2023-01-18T00:43:00.403Z,95595.75
2023-01-18T00:46:05.976Z,95601.69
2023-01-18T00:49:12.468Z,95602.72
2023-01-18T00:52:17.879Z,95604.28
2023-01-18T00:55:27.045Z,95593.81
2023-01-18T00:58:32.432Z,95589.88
2023-01-18T01:01:39.030Z,95593.19
2023-01-18T01:05:00.263Z,95582.59
2023-01-18T01:08:08.022Z,95576.00
2023-01-18T01:11:17.219Z,95571.19
2023-01-18T01:14:39.333Z,95563.25
2023-01-18T01:18:00.750Z,95565.16
2023-01-18T01:21:23.931Z,95562.41
2023-01-18T01:24:45.748Z,95567.50
2023-01-18T01:27:55.255Z,95567.13
2023-01-18T01:31:01.545Z,95561.56
2023-01-18T01:34:08.145Z,95561.06
2023-01-18T01:37:13.591Z,95554.56
2023-01-18T01:40:20.884Z,95556.31
2023-01-18T01:43:47.231Z,95536.38
2023-01-18T01:46:57.808Z,95532.69
2023-01-18T01:50:14.586Z,95534.59
2023-01-18T01:53:20.938Z,95532.94
2023-01-18T01:56:26.796Z,95546.06
2023-01-18T01:59:40.602Z,95541.91
2023-01-18T02:02:55.345Z,95543.13
2023-01-18T02:06:19.487Z,95550.09
2023-01-18T02:09:25.955Z,95552.81
2023-01-18T02:12:34.220Z,95546.66
2023-01-18T02:15:54.464Z,95551.25
2023-01-18T02:19:32.039Z,95545.22
2023-01-18T02:23:17.808Z,95551.25
2023-01-18T02:27:00.134Z,95551.75
2023-01-18T02:30:33.549Z,95546.88
2023-01-18T02:33:55.526Z,95541.66
2023-01-18T02:37:14.136Z,95538.13
2023-01-18T02:40:33.170Z,95538.13
2023-01-18T02:43:58.787Z,95539.91
2023-01-18T02:47:10.938Z,95533.63
2023-01-18T02:50:27.123Z,95530.53
2023-01-18T02:53:36.860Z,95520.63
2023-01-18T02:56:50.288Z,95533.41
2023-01-18T03:00:02.189Z,95529.63
2023-01-18T03:03:15.275Z,95541.44
2023-01-18T03:06:27.881Z,95531.03
2023-01-18T03:09:35.299Z,95540.63
2023-01-18T03:12:56.872Z,95540.63
2023-01-18T03:16:15.139Z,95540.63
2023-01-18T03:19:52.200Z,95540.34
2023-01-18T03:23:24.947Z,95535.44
2023-01-18T03:26:33.193Z,95528.56
2023-01-18T03:29:54.247Z,95528.81
2023-01-18T03:33:16.792Z,95527.66
2023-01-18T03:36:34.933Z,95526.50
2023-01-18T03:39:48.603Z,95523.19
2023-01-18T03:43:05.176Z,95512.56
2023-01-18T03:46:12.624Z,95503.16
2023-01-18T03:49:20.471Z,95494.69
2023-01-18T03:52:43.699Z,95464.00
2023-01-18T03:55:59.868Z,95453.53
2023-01-18T03:59:10.885Z,95426.06
2023-01-18T04:02:19.081Z,95401.59
2023-01-18T04:05:25.473Z,95383.97
2023-01-18T04:08:33.722Z,95357.00
2023-01-18T04:11:40.036Z,95412.91
2023-01-18T04:14:45.503Z,95460.13
2023-01-18T04:17:53.619Z,95450.47
2023-01-18T04:20:59.122Z,95457.06
2023-01-18T04:24:08.792Z,95467.41
2023-01-18T04:27:15.279Z,95471.28
2023-01-18T04:30:21.666Z,95460.44
2023-01-18T04:33:28.335Z,95403.53
2023-01-18T04:36:35.792Z,95449.59
2023-01-18T04:39:44.085Z,95425.50
2023-01-18T04:42:56.729Z,95424.22
2023-01-18T04:46:02.356Z,95416.69
2023-01-18T04:49:10.462Z,95414.81
2023-01-18T04:52:17.782Z,95418.56
2023-01-18T04:55:28.085Z,95415.28
2023-01-18T04:58:34.003Z,95432.00
2023-01-18T05:01:40.288Z,95428.22
2023-01-18T05:04:46.509Z,95437.88
2023-01-18T05:07:52.771Z,95436.00
2023-01-18T05:11:07.817Z,95437.63
2023-01-18T05:14:14.143Z,95437.88
2023-01-18T05:17:19.552Z,95427.63
2023-01-18T05:20:25.792Z,95433.41
2023-01-18T05:23:31.489Z,95434.09
2023-01-18T05:26:40.855Z,95452.72
2023-01-18T05:29:47.013Z,95453.88
2023-01-18T05:32:53.302Z,95472.63
2023-01-18T05:35:59.297Z,95479.56
2023-01-18T05:39:05.583Z,95486.84
2023-01-18T05:42:13.992Z,95487.19
2023-01-18T05:45:20.454Z,95480.53
2023-01-18T05:48:26.012Z,95486.53
2023-01-18T05:51:32.599Z,95481.38
2023-01-18T05:54:38.715Z,95482.59
2023-01-18T05:57:47.956Z,95492.28
2023-01-18T06:00:53.783Z,95478.97
2023-01-18T06:04:00.373Z,95469.22
2023-01-18T06:07:05.989Z,95447.09
2023-01-18T06:10:14.283Z,95442.59
2023-01-18T06:13:23.538Z,95444.88
2023-01-18T06:16:30.159Z,95454.94
2023-01-18T06:19:35.557Z,95454.97
2023-01-18T06:22:41.820Z,95460.56
2023-01-18T06:25:47.372Z,95464.91
2023-01-18T06:28:56.677Z,95465.75
2023-01-18T06:32:02.252Z,95483.53
2023-01-18T06:35:10.174Z,95485.53
2023-01-18T06:38:16.632Z,95489.16
2023-01-18T06:41:22.917Z,95474.47
2023-01-18T06:44:31.876Z,95483.16
2023-01-18T06:47:38.126Z,95478.84
2023-01-18T06:50:43.537Z,95461.34
2023-01-18T06:53:50.253Z,95465.34
2023-01-18T06:56:56.734Z,95465.13
2023-01-18T07:00:08.255Z,95468.66
2023-01-18T07:03:14.015Z,95473.59
2023-01-18T07:06:20.948Z,95474.72
2023-01-18T07:09:26.295Z,95478.28
2023-01-18T07:12:33.014Z,95487.63
2023-01-18T07:15:41.226Z,95459.81
2023-01-18T07:18:49.163Z,95497.44
2023-01-18T07:21:56.905Z,95501.13
2023-01-18T07:25:05.471Z,95493.44
2023-01-18T07:28:18.108Z,95497.28
2023-01-18T07:31:27.716Z,95499.88
2023-01-18T07:34:39.545Z,95476.84
2023-01-18T07:37:45.801Z,95517.22
2023-01-18T07:40:52.169Z,95506.06
2023-01-18T07:44:09.931Z,95497.59
2023-01-18T07:47:18.074Z,95482.31
2023-01-18T07:50:25.126Z,95485.91
2023-01-18T07:53:32.896Z,95491.69
2023-01-18T07:56:40.397Z,95489.78
2023-01-18T07:59:45.770Z,95495.22
2023-01-18T08:02:59.342Z,95496.31
2023-01-18T08:06:06.893Z,95514.41
2023-01-18T08:09:15.564Z,95494.94
2023-01-18T08:12:24.286Z,95503.38
2023-01-18T08:15:30.873Z,95515.97
2023-01-18T08:18:39.526Z,95517.84
2023-01-18T08:21:45.811Z,95515.53
2023-01-18T08:24:51.655Z,95506.88
2023-01-18T08:27:58.315Z,95485.66
2023-01-18T08:31:16.274Z,95486.00
2023-01-18T08:34:25.628Z,95489.81
2023-01-18T08:37:31.731Z,95502.97
2023-01-18T08:40:38.009Z,95514.41
2023-01-18T08:43:43.744Z,95524.06
2023-01-18T08:46:50.165Z,95524.38
2023-01-18T08:49:58.514Z,95534.16
2023-01-18T08:53:05.133Z,95536.22
2023-01-18T08:56:13.031Z,95535.72
2023-01-18T08:59:20.577Z,95530.03
2023-01-18T09:02:26.462Z,95543.19
2023-01-18T09:05:40.494Z,95545.16
2023-01-18T09:08:46.276Z,95546.69
2023-01-18T09:11:54.345Z,95566.66
2023-01-18T09:15:00.830Z,95556.91
2023-01-18T09:18:08.427Z,95548.28
2023-01-18T09:21:17.516Z,95544.91
2023-01-18T09:24:23.899Z,95543.19
2023-01-18T09:27:29.244Z,95554.13
2023-01-18T09:30:36.805Z,95558.50
2023-01-18T09:33:52.382Z,95560.97
2023-01-18T09:37:01.775Z,95568.41
2023-01-18T09:40:08.679Z,95567.31
2023-01-18T09:43:24.711Z,95550.31
2023-01-18T09:46:30.859Z,95553.53
2023-01-18T09:49:52.326Z,95559.56
2023-01-18T09:53:21.174Z,95573.50
2023-01-18T09:56:36.230Z,95570.81
2023-01-18T09:59:54.099Z,95585.31
2023-01-18T10:03:08.218Z,95594.06
2023-01-18T10:06:31.285Z,95599.25
2023-01-18T10:09:48.687Z,95610.03
2023-01-18T10:13:11.527Z,95617.84
2023-01-18T10:16:20.462Z,95589.25
2023-01-18T10:19:32.718Z,95642.31
2023-01-18T10:22:52.979Z,95642.09
2023-01-18T10:26:12.271Z,95653.66
2023-01-18T10:29:37.439Z,95661.13
2023-01-18T10:32:57.314Z,95663.28
2023-01-18T10:36:15.707Z,95667.88
2023-01-18T10:39:40.557Z,95667.56
2023-01-18T10:42:56.817Z,95673.81
2023-01-18T10:46:02.513Z,95674.75
2023-01-18T10:49:09.506Z,95676.50
2023-01-18T10:52:26.217Z,95680.31
2023-01-18T10:55:32.976Z,95683.03
2023-01-18T10:58:55.638Z,95693.19
2023-01-18T11:02:04.082Z,95694.84
2023-01-18T11:05:34.862Z,95688.56
2023-01-18T11:08:41.119Z,95686.81
2023-01-18T11:12:02.255Z,95698.84
2023-01-18T11:15:32.673Z,95692.84
2023-01-18T11:18:38.373Z,95704.75
2023-01-18T11:21:53.052Z,95706.41
2023-01-18T11:24:59.109Z,95707.22
2023-01-18T11:28:09.998Z,95699.19
2023-01-18T11:31:23.147Z,95690.66
2023-01-18T11:34:34.531Z,95720.47
2023-01-18T11:37:44.552Z,95713.88
2023-01-18T11:40:51.172Z,95717.00
2023-01-18T11:44:17.111Z,95713.28
2023-01-18T11:47:37.932Z,95730.31
2023-01-18T11:50:49.796Z,95739.94
2023-01-18T11:54:07.265Z,95734.97
2023-01-18T11:57:15.367Z,95739.72
2023-01-18T12:00:28.631Z,95743.03
2023-01-18T12:03:58.673Z,95755.22
2023-01-18T12:07:33.754Z,95762.91
2023-01-18T12:11:03.312Z,95780.59
2023-01-18T12:14:37.254Z,95784.63
2023-01-18T12:18:14.031Z,95797.13
2023-01-18T12:21:41.585Z,95808.47
2023-01-18T12:25:13.627Z,95815.84
2023-01-18T12:28:40.061Z,95826.13
2023-01-18T12:32:06.287Z,95826.63
2023-01-18T12:35:50.663Z,95711.13
2023-01-18T12:39:00.333Z,95848.09
2023-01-18T12:42:12.891Z,95852.84
2023-01-18T12:45:44.583Z,95862.75
2023-01-18T12:49:01.339Z,95867.03
2023-01-18T12:52:18.459Z,95876.69
2023-01-18T12:55:33.350Z,95878.56
2023-01-18T12:58:40.858Z,95897.00
2023-01-18T13:01:56.410Z,95901.97
2023-01-18T13:05:22.227Z,95912.69
2023-01-18T13:08:44.795Z,95922.56
2023-01-18T13:11:54.075Z,95923.13
2023-01-18T13:15:17.326Z,95933.06
2023-01-18T13:18:31.545Z,95934.00
2023-01-18T13:22:02.626Z,95952.28
2023-01-18T13:25:42.764Z,95947.91
2023-01-18T13:29:16.961Z,95953.72
2023-01-18T13:32:30.854Z,95969.63
2023-01-18T13:35:38.570Z,95974.91
2023-01-18T13:39:01.303Z,95982.69
2023-01-18T13:42:38.527Z,95981.97
2023-01-18T13:49:49.823Z,96002.91
2023-01-18T13:53:22.887Z,96014.06
2023-01-18T13:56:33.467Z,96009.88
2023-01-18T13:59:44.343Z,96008.63
2023-01-18T14:02:54.799Z,96024.59
2023-01-18T14:06:11.772Z,96030.41
2023-01-18T14:09:22.301Z,96039.22
2023-01-18T14:12:53.143Z,96055.09
2023-01-18T14:16:00.448Z,96063.19
2023-01-18T14:19:20.249Z,96073.97
2023-01-18T14:22:58.525Z,96079.34
2023-01-18T14:26:22.646Z,96083.34
2023-01-18T14:29:40.827Z,96093.03
2023-01-18T14:33:02.061Z,96095.22
2023-01-18T14:36:09.742Z,96105.38
2023-01-18T14:39:24.468Z,96100.78
2023-01-18T14:42:35.324Z,96110.47
2023-01-18T14:45:54.255Z,96111.16
2023-01-18T14:49:03.825Z,96120.03
2023-01-18T14:52:10.407Z,96115.16
2023-01-18T14:55:33.556Z,96127.78
2023-01-18T14:58:45.083Z,96133.47
2023-01-18T15:01:58.302Z,96134.81
2023-01-18T15:05:17.215Z,96139.53
2023-01-18T15:08:24.082Z,96157.19
2023-01-18T15:11:34.599Z,96152.44
2023-01-18T15:14:47.027Z,96171.16
2023-01-18T15:17:54.948Z,96168.50
2023-01-18T15:21:07.985Z,96167.94
2023-01-18T15:24:21.279Z,96181.66
2023-01-18T15:27:35.281Z,96186.19
2023-01-18T15:30:41.608Z,96197.81
2023-01-18T15:33:47.879Z,96211.09
2023-01-18T15:36:54.969Z,96218.22
2023-01-18T15:40:04.525Z,96227.69
2023-01-18T15:43:36.514Z,96230.56
2023-01-18T15:46:42.096Z,96233.66
2023-01-18T15:49:53.911Z,96245.00
2023-01-18T15:53:12.891Z,96238.88
2023-01-18T15:56:22.817Z,96257.78
2023-01-18T15:59:31.289Z,96241.34
2023-01-18T16:02:45.003Z,96247.38
2023-01-18T16:06:12.174Z,96250.34
2023-01-18T16:09:25.109Z,96247.59
2023-01-18T16:12:37.900Z,96249.50
2023-01-18T16:15:49.221Z,96251.59
2023-01-18T16:19:08.856Z,96255.38
2023-01-18T16:22:24.869Z,96266.00
2023-01-18T16:25:30.618Z,96271.44
2023-01-18T16:28:37.034Z,96271.13
2023-01-18T16:31:48.485Z,96292.31
2023-01-18T16:34:55.650Z,96305.03
2023-01-18T16:38:01.465Z,96302.34
2023-01-18T16:41:08.937Z,96313.66
2023-01-18T16:44:15.236Z,96312.22
2023-01-18T16:47:24.973Z,96327.09
2023-01-18T16:50:31.649Z,96325.84
2023-01-18T16:53:37.910Z,96331.28
2023-01-18T16:56:46.091Z,96337.91
2023-01-18T16:59:53.797Z,96350.19
2023-01-18T17:03:02.093Z,96363.91
2023-01-18T17:06:09.453Z,96381.16
2023-01-18T17:09:25.424Z,96403.59
2023-01-18T17:12:31.711Z,96406.94
2023-01-18T17:15:40.947Z,96402.78
2023-01-18T17:18:50.033Z,96395.50
2023-01-18T17:21:55.494Z,96419.44
2023-01-18T17:25:01.796Z,96424.19
2023-01-18T17:28:08.777Z,96432.75
2023-01-18T17:31:15.255Z,96422.94
2023-01-18T17:34:28.700Z,96433.66
2023-01-18T17:40:44.368Z,96432.91
2023-01-18T17:43:51.604Z,96438.78
2023-01-18T17:46:57.142Z,96440.41
2023-01-18T17:50:09.169Z,96439.59
2023-01-18T17:53:14.763Z,96446.78
2023-01-18T17:56:22.237Z,96414.84
2023-01-18T17:59:28.343Z,96466.63
2023-01-18T18:02:34.674Z,96469.97
2023-01-18T18:05:43.637Z,96463.91
2023-01-18T18:08:49.940Z,96476.56
2023-01-18T18:11:55.697Z,96482.41
2023-01-18T18:15:02.385Z,96487.16
2023-01-18T18:18:18.393Z,96483.53
2023-01-18T18:21:31.539Z,96508.38
2023-01-18T18:24:37.197Z,96503.56
2023-01-18T18:27:46.906Z,96507.31
2023-01-18T18:30:54.032Z,96503.34
2023-01-18T18:34:00.436Z,96507.38
2023-01-18T18:37:09.193Z,96501.47
2023-01-18T18:40:16.716Z,96502.31
2023-01-18T18:43:24.729Z,96503.78
2023-01-18T18:46:31.169Z,96510.25
2023-01-18T18:49:36.841Z,96512.75
2023-01-18T18:52:46.211Z,96522.72
2023-01-18T18:55:52.024Z,96519.59
2023-01-18T18:58:58.504Z,96526.81
2023-01-18T19:02:04.670Z,96529.34
2023-01-18T19:05:12.398Z,96530.19
2023-01-18T19:08:20.978Z,96540.03
2023-01-18T19:11:27.313Z,96556.53
2023-01-18T19:14:32.923Z,96560.81
2023-01-18T19:17:40.026Z,96573.59
2023-01-18T19:20:45.811Z,96590.78
2023-01-18T19:23:54.911Z,96595.13
2023-01-18T19:27:00.360Z,96593.38
2023-01-18T19:30:10.766Z,96597.91
2023-01-18T19:33:17.892Z,96599.97
2023-01-18T19:36:24.265Z,96600.34
2023-01-18T19:39:34.968Z,96600.00
2023-01-18T19:42:41.579Z,96609.66
2023-01-18T19:45:47.141Z,96611.09
2023-01-18T19:49:00.426Z,96591.28
2023-01-18T19:52:06.111Z,96623.84
2023-01-18T19:55:16.433Z,96620.94
2023-01-18T19:58:21.939Z,96624.09
2023-01-18T20:01:36.345Z,96622.22
2023-01-18T20:04:43.754Z,96629.09
2023-01-18T20:07:50.581Z,96636.59
2023-01-18T20:10:58.832Z,96625.09
2023-01-18T20:14:05.509Z,96628.50
2023-01-18T20:17:11.255Z,96634.66
2023-01-18T20:20:31.296Z,96644.09
2023-01-18T20:23:37.983Z,96654.41
2023-01-18T20:26:47.376Z,96657.09
2023-01-18T20:29:53.234Z,96663.22
2023-01-18T20:32:59.966Z,96677.88
2023-01-18T20:36:06.021Z,96685.66
2023-01-18T20:39:13.201Z,96687.53
2023-01-18T20:42:21.666Z,96676.31
2023-01-18T20:45:28.414Z,96661.72
2023-01-18T20:48:35.803Z,96666.94
2023-01-18T20:51:44.336Z,96663.59
2023-01-18T20:54:49.725Z,96677.72
2023-01-18T20:57:58.780Z,96675.50
2023-01-18T21:01:08.800Z,96631.38
2023-01-18T21:04:15.140Z,96671.44
2023-01-18T21:07:20.611Z,96686.44
2023-01-18T21:10:38.762Z,96689.25
2023-01-18T21:13:47.858Z,96690.16
2023-01-18T21:16:54.268Z,96666.78
2023-01-18T21:19:59.685Z,96668.47
2023-01-18T21:23:06.012Z,96674.47
2023-01-18T21:26:15.019Z,96680.50
2023-01-18T21:29:24.187Z,96672.16
2023-01-18T21:32:29.637Z,96681.81
2023-01-18T21:35:35.925Z,96690.91
2023-01-18T21:38:41.673Z,96698.88
2023-01-18T21:42:03.708Z,96700.34
2023-01-18T21:45:30.441Z,96708.91
2023-01-18T21:48:37.333Z,96727.81
2023-01-18T21:51:58.509Z,96742.38
2023-01-18T21:55:04.770Z,96738.03
2023-01-18T21:58:26.104Z,96752.50
2023-01-18T22:01:39.238Z,96771.34
2023-01-18T22:05:00.350Z,96799.16
2023-01-18T22:08:06.681Z,96815.41
2023-01-18T22:11:12.096Z,96792.75
2023-01-18T22:14:19.168Z,96804.84
2023-01-18T22:17:28.881Z,96795.91
2023-01-18T22:20:35.509Z,96800.09
2023-01-18T22:23:40.865Z,96801.78
2023-01-18T22:26:48.960Z,96795.56
2023-01-18T22:29:54.348Z,96805.03
2023-01-18T22:33:03.627Z,96810.03
2023-01-18T22:36:09.875Z,96814.31
2023-01-18T22:39:17.901Z,96816.81
2023-01-18T22:42:23.421Z,96820.34
2023-01-18T22:45:30.143Z,96830.72
2023-01-18T22:48:40.810Z,96832.50
2023-01-18T22:51:47.866Z,96841.31
2023-01-18T22:54:53.231Z,96846.78
2023-01-18T22:57:59.803Z,96848.72
2023-01-18T23:01:07.180Z,96854.09
2023-01-18T23:04:16.449Z,96848.72
2023-01-18T23:07:21.902Z,96841.75
2023-01-18T23:10:28.244Z,96843.44
2023-01-18T23:13:33.719Z,96848.53
2023-01-18T23:16:57.143Z,96844.34
2023-01-18T23:20:05.367Z,96846.59
2023-01-18T23:23:11.666Z,96852.53
2023-01-18T23:26:17.843Z,96856.78
2023-01-18T23:29:24.173Z,96858.56
2023-01-18T23:32:31.204Z,96855.81
2023-01-18T23:35:40.430Z,96859.38
2023-01-18T23:39:01.755Z,96866.28
2023-01-18T23:42:24.409Z,96867.41
2023-01-18T23:45:45.690Z,96877.69
2023-01-18T23:49:08.061Z,96862.00
2023-01-18T23:52:32.172Z,96857.75
2023-01-18T23:55:38.438Z,96854.41
2023-01-18T23:58:43.781Z,96849.38
